createdAt,value
2023-01-29T00:01:12.809Z,32.70
2023-01-29T00:03:42.140Z,42.40
2023-01-29T00:06:11.234Z,33.70
2023-01-29T00:08:41.053Z,26.90
2023-01-29T00:11:10.404Z,24.10
2023-01-29T00:13:39.236Z,23.60
2023-01-29T00:16:09.734Z,35.80
2023-01-29T00:18:41.869Z,19.40
2023-01-29T00:21:16.146Z,24.80
2023-01-29T00:23:44.991Z,24.00
2023-01-29T00:26:14.603Z,24.00
2023-01-29T00:28:45.490Z,22.40
2023-01-29T00:31:20.818Z,23.00
2023-01-29T00:33:49.960Z,24.90
2023-01-29T00:36:20.050Z,19.90
2023-01-29T00:39:02.928Z,21.00
2023-01-29T00:41:52.030Z,28.10
2023-01-29T00:44:39.659Z,25.00
2023-01-29T00:47:28.505Z,21.80
2023-01-29T00:49:57.808Z,23.00
2023-01-29T00:52:26.700Z,20.70
2023-01-29T00:54:57.898Z,15.80
2023-01-29T00:57:27.960Z,18.40
2023-01-29T00:59:57.767Z,17.00
2023-01-29T01:02:45.629Z,18.40
2023-01-29T01:05:19.860Z,19.20
2023-01-29T01:07:50.787Z,18.80
2023-01-29T01:10:30.765Z,17.00
2023-01-29T01:13:04.244Z,16.00
2023-01-29T01:15:38.326Z,17.10
2023-01-29T01:18:06.806Z,19.00
2023-01-29T01:20:35.651Z,17.20
2023-01-29T01:23:04.365Z,13.10
2023-01-29T01:25:32.870Z,17.20
2023-01-29T01:28:01.768Z,17.90
2023-01-29T01:30:30.538Z,17.20
2023-01-29T01:32:58.909Z,16.40
2023-01-29T01:35:27.702Z,14.00
2023-01-29T01:37:56.004Z,22.30
2023-01-29T01:40:25.503Z,18.50
2023-01-29T01:42:58.331Z,16.40
2023-01-29T01:45:29.983Z,15.50
2023-01-29T01:48:02.080Z,16.30
2023-01-29T01:50:35.787Z,18.50
2023-01-29T01:53:09.434Z,15.30
2023-01-29T01:55:47.904Z,14.90
2023-01-29T01:58:26.331Z,15.70
2023-01-29T02:00:55.224Z,15.00
2023-01-29T02:03:43.047Z,16.30
2023-01-29T02:06:31.285Z,17.00
2023-01-29T02:09:25.293Z,13.20
2023-01-29T02:11:54.188Z,15.70
2023-01-29T02:14:23.462Z,17.30
2023-01-29T02:16:52.546Z,15.10
2023-01-29T02:19:59.235Z,17.80
2023-01-29T02:23:27.850Z,16.80
2023-01-29T02:26:04.930Z,14.00
2023-01-29T02:28:57.725Z,20.10
2023-01-29T02:31:34.765Z,20.30
2023-01-29T02:34:29.433Z,15.30
2023-01-29T02:37:08.461Z,15.50
2023-01-29T02:39:42.466Z,12.90
2023-01-29T02:42:27.672Z,15.20
2023-01-29T02:44:58.976Z,16.10
2023-01-29T02:48:01.709Z,18.70
2023-01-29T02:50:49.504Z,15.60
2023-01-29T02:53:41.909Z,17.30
2023-01-29T02:56:13.530Z,14.30
2023-01-29T03:01:34.236Z,15.90
2023-01-29T03:04:06.451Z,16.30
2023-01-29T03:06:40.514Z,22.00
2023-01-29T03:09:13.158Z,18.90
2023-01-29T03:11:43.262Z,20.40
2023-01-29T03:14:24.350Z,22.10
2023-01-29T03:16:53.648Z,19.00
2023-01-29T03:19:30.639Z,22.60
2023-01-29T03:22:01.783Z,25.80
2023-01-29T03:25:13.276Z,18.10
2023-01-29T03:28:05.644Z,17.50
2023-01-29T03:31:01.304Z,18.70
2023-01-29T03:33:41.011Z,16.10
2023-01-29T03:36:13.922Z,20.00
2023-01-29T03:38:43.473Z,20.90
2023-01-29T03:41:23.833Z,21.20
2023-01-29T03:44:41.866Z,20.40
2023-01-29T03:47:27.210Z,22.60
2023-01-29T03:50:02.381Z,15.60
2023-01-29T03:52:41.818Z,21.80
2023-01-29T03:55:16.069Z,14.60
2023-01-29T03:57:53.698Z,47.80
2023-01-29T04:00:32.862Z,28.20
2023-01-29T04:03:06.894Z,17.30
2023-01-29T04:05:40.883Z,18.50
2023-01-29T04:08:18.022Z,18.40
2023-01-29T04:10:47.218Z,20.00
2023-01-29T04:13:17.901Z,17.70
2023-01-29T04:15:54.674Z,16.60
2023-01-29T04:18:32.141Z,24.60
2023-01-29T04:21:08.734Z,14.60
2023-01-29T04:23:38.139Z,18.00
2023-01-29T04:26:45.937Z,15.60
2023-01-29T08:03:27.267Z,43.40
2023-01-29T08:06:01.080Z,38.60
2023-01-29T08:08:30.457Z,38.10
2023-01-29T08:11:05.848Z,37.20
2023-01-29T08:13:38.271Z,37.20
2023-01-29T08:16:08.078Z,38.70
2023-01-29T08:18:38.599Z,41.30
2023-01-29T08:21:08.223Z,26.50
2023-01-29T08:23:37.946Z,42.70
2023-01-29T08:26:06.923Z,42.30
2023-01-29T08:28:37.482Z,35.20
2023-01-29T08:31:18.044Z,42.20
2023-01-29T08:33:51.071Z,37.30
2023-01-29T08:36:20.406Z,33.60
2023-01-29T08:38:50.414Z,40.20
2023-01-29T08:41:20.133Z,36.00
2023-01-29T08:44:11.766Z,39.60
2023-01-29T08:46:42.179Z,36.70
2023-01-29T08:49:11.892Z,42.70
2023-01-29T08:51:41.198Z,39.30
2023-01-29T08:54:10.316Z,38.10
2023-01-29T08:56:39.583Z,39.70
2023-01-29T08:59:08.331Z,44.10
2023-01-29T09:01:37.158Z,35.60
2023-01-29T09:04:06.149Z,38.70
2023-01-29T09:06:35.246Z,48.90
2023-01-29T09:09:04.951Z,48.80
2023-01-29T09:11:34.735Z,44.10
2023-01-29T09:14:03.758Z,43.80
2023-01-29T09:16:32.663Z,41.50
2023-01-29T09:19:01.643Z,40.30
2023-01-29T09:21:31.059Z,43.50
2023-01-29T09:24:00.749Z,40.90
2023-01-29T09:26:31.010Z,43.50
2023-01-29T09:29:00.790Z,33.80
2023-01-29T09:31:29.846Z,45.40
2023-01-29T09:33:58.489Z,38.20
2023-01-29T09:36:27.664Z,36.20
2023-01-29T09:38:56.958Z,36.90
2023-01-29T09:41:49.745Z,38.40
2023-01-29T09:44:26.692Z,38.50
2023-01-29T09:46:55.787Z,30.40
2023-01-29T09:49:51.303Z,33.90
2023-01-29T09:52:25.845Z,51.30
2023-01-29T09:55:12.939Z,32.60
2023-01-29T09:57:47.460Z,36.00
2023-01-29T10:01:04.443Z,30.50
2023-01-29T10:04:41.414Z,40.00
2023-01-29T10:07:13.439Z,30.50
2023-01-29T10:09:58.450Z,32.70
2023-01-29T10:16:41.655Z,33.40
2023-01-29T10:19:19.342Z,42.50
2023-01-29T10:22:01.477Z,40.90
2023-01-29T10:27:36.202Z,32.00
2023-01-29T10:30:10.541Z,32.30
2023-01-29T10:32:41.038Z,38.20
2023-01-29T10:35:26.804Z,35.10
2023-01-29T10:38:09.986Z,30.70
2023-01-29T10:40:43.258Z,45.60
2023-01-29T10:43:45.058Z,31.40
2023-01-29T10:46:36.835Z,29.20
2023-01-29T10:49:05.959Z,33.60
2023-01-29T10:52:07.076Z,33.20
2023-01-29T10:54:37.354Z,32.50
2023-01-29T10:57:09.463Z,37.30
2023-01-29T10:59:43.751Z,37.70
2023-01-29T11:02:16.462Z,32.40
2023-01-29T11:04:45.631Z,32.70
2023-01-29T11:07:15.165Z,39.50
2023-01-29T11:09:58.526Z,32.20
2023-01-29T11:12:30.944Z,34.60
2023-01-29T11:15:14.509Z,38.50
2023-01-29T11:18:07.248Z,30.00
2023-01-29T11:20:36.346Z,35.60
2023-01-29T11:23:07.569Z,33.10
2023-01-29T11:25:39.246Z,28.10
2023-01-29T11:28:09.605Z,37.40
2023-01-29T11:30:39.427Z,31.90
2023-01-29T11:33:24.142Z,26.50
2023-01-29T11:35:53.542Z,34.80
2023-01-29T11:38:27.445Z,30.00
2023-01-29T11:41:16.216Z,29.90
2023-01-29T11:46:18.185Z,28.50
2023-01-29T11:48:50.370Z,32.00
2023-01-29T11:51:24.068Z,29.20
2023-01-29T11:54:01.040Z,32.70
2023-01-29T11:56:40.065Z,27.20
2023-01-29T11:59:48.828Z,29.30
2023-01-29T12:02:31.200Z,35.90
2023-01-29T12:05:04.049Z,29.50
2023-01-29T12:07:33.375Z,129.10
2023-01-29T12:10:02.413Z,31.80
2023-01-29T12:12:40.310Z,32.80
2023-01-29T12:15:22.685Z,40.00
2023-01-29T12:18:12.279Z,30.80
2023-01-29T12:20:54.739Z,34.80
2023-01-29T12:23:35.014Z,34.00
2023-01-29T12:26:24.738Z,30.20
2023-01-29T12:29:12.529Z,31.00
2023-01-29T12:31:48.760Z,30.20
2023-01-29T12:34:28.028Z,34.50
2023-01-29T12:37:03.818Z,36.40
2023-01-29T12:39:32.939Z,27.40
2023-01-29T12:42:11.423Z,35.10
2023-01-29T12:44:43.928Z,47.60
2023-01-29T12:47:20.838Z,28.50
2023-01-29T12:49:52.804Z,31.90
2023-01-29T12:52:35.480Z,23.80
2023-01-29T12:55:17.123Z,26.70
2023-01-29T12:58:00.308Z,24.20
2023-01-29T16:51:32.040Z,17.70
2023-01-29T16:54:04.192Z,16.30
2023-01-29T16:56:33.258Z,16.30
2023-01-29T16:59:03.693Z,21.90
2023-01-29T17:01:33.264Z,15.50
2023-01-29T17:04:07.926Z,17.20
2023-01-29T17:06:46.183Z,17.30
2023-01-29T17:09:26.752Z,21.60
2023-01-29T17:12:02.083Z,27.70
2023-01-29T17:14:32.739Z,21.40
2023-01-29T17:17:18.240Z,20.10
2023-01-29T17:19:48.323Z,20.30
2023-01-29T17:22:17.621Z,18.70
2023-01-29T17:24:46.616Z,18.30
2023-01-29T17:27:21.024Z,20.20
2023-01-29T17:29:52.033Z,20.30
2023-01-29T17:32:23.018Z,23.70
2023-01-29T17:34:53.370Z,18.50
2023-01-29T17:37:22.550Z,17.30
2023-01-29T17:39:52.967Z,19.10
2023-01-29T17:42:22.056Z,21.40
2023-01-29T17:44:51.664Z,13.90
2023-01-29T17:47:23.623Z,14.00
2023-01-29T17:49:53.847Z,22.10
2023-01-29T17:52:22.940Z,20.20
2023-01-29T17:54:51.867Z,19.30
2023-01-29T17:57:21.131Z,18.60
2023-01-29T17:59:50.431Z,15.80
2023-01-29T18:02:29.100Z,22.00
2023-01-29T18:04:59.604Z,18.30
2023-01-29T18:07:28.501Z,22.10
2023-01-29T18:09:58.083Z,19.30
2023-01-29T18:12:27.121Z,18.70
2023-01-29T18:14:56.681Z,15.50
2023-01-29T18:17:26.419Z,16.60
2023-01-29T18:20:00.640Z,20.70
2023-01-29T18:22:32.169Z,18.20
2023-01-29T18:25:02.207Z,20.60
2023-01-29T18:27:33.112Z,21.70
2023-01-29T18:30:02.510Z,19.30
2023-01-29T18:32:32.425Z,19.80
2023-01-29T18:35:01.579Z,16.60
2023-01-29T18:37:39.981Z,15.80
2023-01-29T18:40:10.365Z,20.70
2023-01-29T18:42:40.874Z,15.00
2023-01-29T18:45:11.440Z,18.00
2023-01-29T18:47:41.029Z,15.50
2023-01-29T18:50:11.190Z,23.70
2023-01-29T18:52:41.585Z,15.70
2023-01-29T18:55:10.891Z,19.60
2023-01-29T18:58:24.928Z,19.10
2023-01-29T19:00:30.575Z,22.00
2023-01-29T19:03:01.123Z,25.40
2023-01-29T19:05:35.079Z,25.60
2023-01-29T19:08:06.048Z,23.10
2023-01-29T19:10:37.058Z,37.40
2023-01-29T19:13:09.264Z,46.90
2023-01-29T19:15:42.595Z,56.90
2023-01-29T19:18:14.814Z,63.00
2023-01-29T19:20:45.352Z,61.20
2023-01-29T19:23:14.485Z,56.10
2023-01-29T19:25:43.813Z,58.00
2023-01-29T19:28:12.773Z,48.70
2023-01-29T19:30:42.352Z,49.00
2023-01-29T19:33:12.359Z,38.00
2023-01-29T19:35:45.068Z,37.50
2023-01-29T19:38:35.767Z,41.40
2023-01-29T19:41:06.062Z,39.10
2023-01-29T19:43:35.499Z,33.90
2023-01-29T19:46:05.928Z,23.90
2023-01-29T19:48:35.120Z,25.60
2023-01-29T19:51:09.551Z,28.90
2023-01-29T19:53:39.745Z,33.60
2023-01-29T19:56:10.286Z,41.40
2023-01-29T19:58:39.455Z,43.30
2023-01-29T20:01:19.454Z,38.00
2023-01-29T20:03:48.923Z,48.00
2023-01-29T20:06:18.924Z,38.00
2023-01-29T20:08:48.333Z,45.20
2023-01-29T20:11:18.840Z,44.80
2023-01-29T20:13:50.416Z,37.30
2023-01-29T20:16:19.958Z,41.90
2023-01-29T20:18:49.921Z,41.50
2023-01-29T20:21:23.023Z,47.00
2023-01-29T20:23:52.421Z,40.40
2023-01-29T20:26:22.395Z,47.00
2023-01-29T20:28:51.942Z,51.70
2023-01-29T20:31:21.460Z,53.80
2023-01-29T20:33:51.064Z,48.80
2023-01-29T20:36:20.460Z,42.30
2023-01-29T20:38:49.455Z,37.20
2023-01-29T20:41:19.520Z,39.80
2023-01-29T20:43:51.017Z,42.90
2023-01-29T20:46:21.092Z,37.00
2023-01-29T20:48:53.489Z,44.90
2023-01-29T20:51:22.594Z,42.80
2023-01-29T20:53:52.207Z,40.30
2023-01-29T20:56:30.983Z,40.90
2023-01-29T20:59:10.068Z,32.50
2023-01-29T21:01:38.738Z,43.30
2023-01-29T21:04:07.323Z,42.30
2023-01-29T21:06:36.012Z,39.10
2023-01-29T21:09:04.692Z,44.00
2023-01-29T21:11:35.737Z,42.10
2023-01-29T21:14:04.726Z,46.00
2023-01-29T21:16:34.773Z,60.30
2023-01-29T21:19:04.047Z,48.00
2023-01-29T21:21:34.989Z,30.00
2023-01-29T21:24:05.554Z,33.70
2023-01-29T21:26:34.531Z,33.20
2023-01-29T21:29:03.187Z,38.60
2023-01-29T21:31:33.467Z,31.80
2023-01-29T21:34:02.003Z,33.90
2023-01-29T21:36:31.394Z,32.30
2023-01-29T21:39:00.184Z,35.40
2023-01-29T21:41:46.999Z,27.00
2023-01-29T21:44:15.989Z,19.30
2023-01-29T21:46:44.978Z,16.80
2023-01-29T21:49:13.766Z,15.60
2023-01-29T21:51:43.267Z,20.10
2023-01-29T21:54:12.672Z,25.40
2023-01-29T21:56:41.767Z,18.30
2023-01-29T21:59:11.744Z,20.60
2023-01-29T22:01:42.469Z,22.90
2023-01-29T22:04:11.915Z,20.70
2023-01-29T22:06:40.564Z,23.10
2023-01-29T22:09:09.759Z,31.10
2023-01-29T22:11:38.898Z,39.90
2023-01-29T22:14:08.402Z,56.30
2023-01-29T22:16:37.634Z,70.50
2023-01-29T22:19:06.797Z,88.60
2023-01-29T22:21:36.014Z,96.40
2023-01-29T22:24:05.738Z,86.70
2023-01-29T22:26:35.816Z,80.30
2023-01-29T22:29:04.733Z,75.30
2023-01-29T22:31:33.909Z,72.70
2023-01-29T22:34:02.803Z,71.10
2023-01-29T22:36:32.943Z,64.60
2023-01-29T22:39:02.221Z,70.40
2023-01-29T22:41:31.425Z,58.30
2023-01-29T22:44:01.026Z,62.90
2023-01-29T22:46:29.545Z,75.20
2023-01-29T22:48:58.624Z,76.10
2023-01-29T22:51:27.900Z,56.00
2023-01-29T22:53:57.304Z,56.30
2023-01-29T22:56:29.847Z,63.20
2023-01-29T22:59:00.210Z,74.80
2023-01-29T23:01:30.365Z,68.90
2023-01-29T23:04:01.828Z,42.70
2023-01-29T23:06:31.011Z,41.70
2023-01-29T23:09:00.581Z,37.10
2023-01-29T23:11:29.568Z,38.60
2023-01-29T23:13:58.969Z,39.50
2023-01-29T23:16:28.701Z,40.80
2023-01-29T23:18:57.476Z,43.10
2023-01-29T23:21:27.997Z,42.50
2023-01-29T23:23:59.861Z,45.30
2023-01-29T23:26:48.024Z,38.10
2023-01-29T23:29:16.788Z,33.80
2023-01-29T23:31:45.554Z,39.70
2023-01-29T23:34:14.561Z,35.30
2023-01-29T23:36:43.350Z,40.20
2023-01-29T23:39:11.943Z,38.00
2023-01-29T23:41:40.523Z,51.90
2023-01-29T23:44:10.128Z,44.00
2023-01-29T23:46:40.427Z,49.50
2023-01-29T23:49:09.246Z,44.20
2023-01-29T23:51:38.235Z,44.20
2023-01-29T23:54:07.430Z,44.80
2023-01-29T23:56:36.338Z,51.60
2023-01-29T23:59:09.131Z,53.10
